Time;durP1;ratioP1;P1;durP2;ratioP2;P2;SDS_P1;SDS_P2;PMS_P1;PMS_P2;Temp;Humidity;BMP_temperature;BMP_pressure;BME280_temperature;BME280_humidity;BME280_pressure;Samples;Min_cycle;Max_cycle;Signal;HPM_P1;HPM_P2
2021/07/28 00:00:50;;;;;;;21.02;16.23;;;;;;;;;;5030767;28;20018;-77
2021/07/28 00:03:16;;;;;;;22.05;15.82;;;;;;;;;;5023450;28;20406;-76
2021/07/28 00:05:42;;;;;;;24.60;16.52;;;;;;;;;;5012524;28;20033;-77
2021/07/28 00:08:08;;;;;;;25.85;15.82;;;;;;;;;;5018898;28;20065;-77
2021/07/28 00:10:34;;;;;;;19.13;15.48;;;;;;;;;;5031379;28;20468;-77
2021/07/28 00:13:00;;;;;;;19.67;14.18;;;;;;;;;;5022943;28;20108;-76
2021/07/28 00:15:26;;;;;;;20.85;14.18;;;;;;;;;;5019302;28;20537;-76
2021/07/28 00:17:55;;;;;;;19.52;15.27;;;;;;;;;;5017407;28;20038;-76
2021/07/28 00:20:29;;;;;;;23.45;16.13;;;;;;;;;;5031649;28;20025;-76
2021/07/28 00:25:39;;;;;;;21.88;16.15;;;;;;;;;;5032307;28;20091;-77
2021/07/28 00:28:05;;;;;;;24.55;15.32;;;;;;;;;;5023055;28;20037;-76
2021/07/28 00:30:32;;;;;;;19.30;14.80;;;;;;;;;;5011727;28;20502;-77
2021/07/28 00:32:58;;;;;;;19.90;14.82;;;;;;;;;;5012204;28;20171;-76
2021/07/28 00:35:24;;;;;;;22.77;15.35;;;;;;;;;;5011955;28;20040;-76
2021/07/28 00:37:50;;;;;;;20.15;15.07;;;;;;;;;;5010621;28;20026;-76
2021/07/28 00:40:17;;;;;;;19.67;13.65;;;;;;;;;;5011669;28;20050;-76
2021/07/28 00:42:42;;;;;;;19.52;14.45;;;20.40;99.90;;;;;;5015847;28;20293;-76
2021/07/28 00:45:08;;;;;;;18.25;13.85;;;18.40;99.90;;;;;;5021354;28;20042;-76
2021/07/28 00:47:34;;;;;;;19.77;14.50;;;18.20;99.90;;;;;;5012160;28;20049;-76
2021/07/28 00:50:03;;;;;;;18.80;13.65;;;18.70;99.90;;;;;;5011393;28;20047;-76
2021/07/28 00:52:30;;;;;;;20.40;14.32;;;18.10;99.90;;;;;;5013998;28;20497;-76
2021/07/28 00:54:56;;;;;;;20.75;15.35;;;18.40;99.90;;;;;;5031688;28;20394;-76
2021/07/28 00:57:21;;;;;;;18.73;14.50;;;18.50;99.90;;;;;;5029871;28;20025;-76
2021/07/28 00:59:47;;;;;;;22.85;15.65;;;18.20;99.90;;;;;;5011315;28;20030;-76
2021/07/28 01:02:13;;;;;;;20.17;15.43;;;17.90;99.90;;;;;;5011804;28;20411;-76
2021/07/28 01:04:39;;;;;;;20.02;15.23;;;18.10;99.90;;;;;;5031246;28;20033;-76
2021/07/28 01:07:04;;;;;;;21.42;14.30;;;17.90;99.90;;;;;;5031525;28;20061;-76
2021/07/28 01:09:30;;;;;;;18.65;13.68;;;17.80;99.90;;;;;;5011985;28;20030;-76
2021/07/28 01:12:02;;;;;;;22.92;15.18;;;17.80;99.90;;;;;;5011723;28;20459;-76
2021/07/28 01:14:28;;;;;;;21.63;14.67;;;17.80;99.90;;;;;;5004890;28;20027;-76
2021/07/28 01:16:55;;;;;;;23.20;15.43;;;17.90;99.90;;;;;;4992017;28;20029;-76
2021/07/28 01:19:26;;;;;;;20.40;14.93;;;17.70;99.90;;;;;;5009373;28;20026;-76
2021/07/28 01:21:53;;;;;;;20.88;15.30;;;18.10;99.90;;;;;;5010329;28;20026;-76
2021/07/28 01:24:20;;;;;;;18.45;13.88;;;17.90;99.90;;;;;;5012151;28;20053;-76
2021/07/28 01:26:46;;;;;;;19.67;13.95;;;;;;;;;;5011351;28;20033;-76
2021/07/28 01:29:12;;;;;;;17.95;13.20;;;;;;;;;;5027158;28;20060;-76
2021/07/28 01:31:39;;;;;;;21.48;13.82;;;;;;;;;;5030921;28;20056;-76
2021/07/28 01:34:06;;;;;;;18.77;13.60;;;;;;;;;;5015372;28;20026;-76
2021/07/28 01:36:32;;;;;;;23.23;14.52;;;;;;;;;;5011424;28;20029;-76
2021/07/28 01:38:58;;;;;;;18.15;14.07;;;;;;;;;;5025177;28;20017;-76
2021/07/28 01:41:24;;;;;;;18.90;13.98;;;;;;;;;;5030873;28;20414;-76
2021/07/28 01:43:50;;;;;;;19.52;13.75;;;;;;;;;;5017520;28;20026;-76
2021/07/28 01:46:18;;;;;;;21.17;13.65;;;;;;;;;;5011205;28;20136;-76
2021/07/28 01:48:44;;;;;;;19.42;13.38;;;;;;;;;;5025467;28;20034;-76
2021/07/28 01:51:10;;;;;;;16.30;12.82;;;;;;;;;;5033278;28;20026;-76
2021/07/28 01:53:36;;;;;;;14.93;11.98;;;;;;;;;;5023039;28;20402;-76
2021/07/28 01:56:02;;;;;;;13.43;11.10;;;;;;;;;;5014868;28;20022;-76
2021/07/28 01:58:28;;;;;;;17.10;11.45;;;;;;;;;;5025043;28;20053;-76
2021/07/28 02:00:55;;;;;;;15.30;11.02;;;;;;;;;;5034023;28;20036;-76
2021/07/28 02:03:21;;;;;;;19.02;12.50;;;;;;;;;;5024931;28;20033;-76
2021/07/28 02:05:47;;;;;;;17.85;11.95;;;;;;;;;;5014690;28;20034;-76
2021/07/28 02:08:14;;;;;;;15.15;10.98;;;;;;;;;;5022752;28;20036;-76
2021/07/28 02:10:46;;;;;;;14.50;10.88;;;;;;;;;;5033842;28;20021;-76
2021/07/28 02:13:12;;;;;;;17.35;10.88;;;;;;;;;;5026093;28;20117;-76
2021/07/28 02:15:39;;;;;;;12.73;10.35;;;;;;;;;;5014258;28;20493;-76
2021/07/28 02:18:05;;;;;;;17.48;10.68;;;;;;;;;;5021380;28;20029;-76
2021/07/28 02:20:32;;;;;;;12.93;10.45;;;;;;;;;;5033836;28;20402;-76
2021/07/28 02:22:58;;;;;;;18.67;10.57;;;;;;;;;;5028122;28;20448;-76
2021/07/28 02:25:24;;;;;;;17.85;11.30;;;;;;;;;;5014255;28;20116;-76
2021/07/28 02:27:50;;;;;;;15.02;10.85;;;;;;;;;;5018073;28;20060;-76
2021/07/28 02:30:16;;;;;;;15.23;10.73;;;;;;;;;;5013748;28;20052;-75
2021/07/28 02:32:44;;;;;;;14.95;10.45;;;;;;;;;;5032056;28;20042;-76
2021/07/28 02:35:12;;;;;;;13.57;10.45;;;;;;;;;;5033928;28;20030;-76
2021/07/28 02:37:40;;;;;;;14.98;11.00;;;;;;;;;;5028908;28;20036;-76
2021/07/28 02:40:07;;;;;;;13.57;10.13;;;;;;;;;;4994064;28;20055;-76
2021/07/28 02:42:33;;;;;;;15.80;9.93;;;;;;;;;;5000492;28;20100;-76
2021/07/28 02:44:59;;;;;;;15.52;10.85;;;;;;;;;;5024776;28;20038;-76
2021/07/28 02:47:25;;;;;;;13.70;10.00;;;;;;;;;;5015528;28;20446;-76
2021/07/28 02:49:51;;;;;;;18.60;11.18;;;;;;;;;;5032871;28;20025;-76
2021/07/28 02:52:17;;;;;;;22.45;13.18;;;;;;;;;;5031620;28;20030;-76
2021/07/28 02:54:43;;;;;;;15.23;11.23;;;;;;;;;;5013651;28;20026;-76
2021/07/28 02:57:09;;;;;;;14.95;11.05;;;;;;;;;;5013690;28;20419;-76
2021/07/28 02:59:35;;;;;;;16.55;10.95;;;;;;;;;;5031995;28;20069;-76
2021/07/28 03:02:01;;;;;;;20.17;12.57;;;;;;;;;;5033165;28;20026;-76
2021/07/28 03:04:27;;;;;;;17.45;12.07;;;;;;;;;;5013751;28;20044;-76
2021/07/28 03:06:53;;;;;;;18.00;11.23;;;;;;;;;;5012984;28;20045;-76
2021/07/28 03:09:19;;;;;;;16.13;11.70;;;;;;;;;;5029993;28;20064;-76
2021/07/28 03:11:44;;;;;;;18.20;12.75;;;;;;;;;;5032948;28;20112;-76
2021/07/28 03:14:10;;;;;;;15.68;11.85;;;;;;;;;;5016785;28;20048;-76
2021/07/28 03:16:39;;;;;;;20.77;11.82;;;;;;;;;;5013492;28;20496;-76
2021/07/28 03:19:05;;;;;;;20.23;11.88;;;;;;;;;;5027853;28;20022;-76
2021/07/28 03:21:32;;;;;;;18.77;12.20;;;;;;;;;;5033080;28;20026;-76
2021/07/28 03:23:58;;;;;;;18.02;11.57;;;;;;;;;;5018523;28;20029;-75
2021/07/28 03:26:24;;;;;;;16.42;10.57;;;;;;;;;;5013255;28;20025;-76
2021/07/28 03:28:50;;;;;;;24.25;12.07;;;;;;;;;;5024798;28;20509;-76
2021/07/28 03:31:16;;;;;;;17.23;11.80;;;;;;;;;;5032904;28;20136;-76
2021/07/28 03:33:42;;;;;;;16.52;10.73;;;;;;;;;;5020059;28;20065;-76
2021/07/28 03:36:08;;;;;;;14.73;10.88;;;;;;;;;;5012887;28;20052;-76
2021/07/28 03:38:34;;;;;;;14.00;11.05;;;;;;;;;;5013277;28;20029;-76
2021/07/28 03:41:00;;;;;;;15.63;11.05;;;;;;;;;;5012471;28;20549;-76
2021/07/28 03:43:26;;;;;;;18.35;10.95;;;;;;;;;;5022968;28;20021;-76
2021/07/28 03:45:54;;;;;;;17.35;11.30;;;;;;;;;;5016185;28;20104;-76
2021/07/28 03:48:20;;;;;;;15.50;10.32;;;;;;;;;;5021747;28;20065;-76
2021/07/28 03:50:46;;;;;;;18.90;11.20;;;;;;;;;;5030382;28;20026;-76
2021/07/28 03:53:12;;;;;;;19.13;11.65;;;;;;;;;;5024189;28;20088;-76
2021/07/28 03:55:38;;;;;;;19.40;12.82;;;;;;;;;;5012379;28;20104;-76
2021/07/28 03:58:04;;;;;;;25.63;14.50;;;;;;;;;;5019763;28;20485;-76
2021/07/28 04:00:30;;;;;;;22.50;14.55;;;;;;;;;;5031775;28;20026;-76
2021/07/28 04:02:56;;;;;;;24.08;15.10;;;;;;;;;;5024993;28;20046;-76
2021/07/28 04:05:22;;;;;;;23.33;14.27;;;;;;;;;;5012044;28;20030;-76
2021/07/28 04:07:56;;;;;;;27.73;15.05;;;;;;;;;;5017387;28;20033;-76
2021/07/28 04:10:22;;;;;;;27.23;15.00;;;;;;;;;;5031513;28;20032;-76
2021/07/28 04:12:48;;;;;;;24.80;15.30;;;;;;;;;;5025305;28;20045;-76
2021/07/28 04:15:14;;;;;;;25.05;14.93;;;;;;;;;;5012093;28;20037;-75
2021/07/28 04:17:40;;;;;;;18.55;13.50;;;;;;;;;;5016170;28;20401;-76
2021/07/28 04:20:06;;;;;;;22.90;14.20;;;;;;;;;;5029777;28;20030;-76
2021/07/28 04:22:32;;;;;;;23.63;14.73;;;;;;;;;;5028964;28;20022;-76
2021/07/28 04:25:01;;;;;;;23.95;15.40;;;;;;;;;;5012155;28;20441;-76
2021/07/28 04:27:29;;;;;;;23.67;15.18;;;;;;;;;;5014071;28;20601;-76
2021/07/28 04:29:55;;;;;;;25.77;15.15;;;;;;;;;;5031352;28;20035;-76
2021/07/28 04:32:21;;;;;;;25.63;14.98;;;;;;;;;;5030394;28;20044;-76
2021/07/28 04:34:47;;;;;;;23.95;14.77;;;;;;;;;;5011867;28;20033;-76
2021/07/28 04:37:15;;;;;;;23.45;14.15;;;;;;;;;;5012220;28;20080;-76
2021/07/28 04:39:41;;;;;;;25.98;14.68;;;;;;;;;;5031215;28;20025;-76
2021/07/28 04:42:07;;;;;;;22.10;14.82;;;;;;;;;;5031833;28;20041;-75
2021/07/28 04:44:33;;;;;;;22.83;14.77;;;;;;;;;;5012012;28;20503;-76
2021/07/28 04:46:59;;;;;;;24.00;15.00;;;;;;;;;;5020133;28;20042;-76
2021/07/28 04:49:25;;;;;;;25.08;14.48;;;;;;;;;;5012533;28;20045;-76
2021/07/28 04:51:51;;;;;;;23.70;14.18;;;;;;;;;;5011984;28;20498;-76
2021/07/28 04:54:17;;;;;;;22.25;14.27;;;;;;;;;;5028572;28;20044;-76
2021/07/28 04:56:43;;;;;;;24.38;15.68;;;;;;;;;;5031490;28;20100;-76
2021/07/28 04:59:08;;;;;;;25.67;15.82;;;;;;;;;;5030601;28;20397;-76
2021/07/28 05:01:34;;;;;;;25.33;15.25;;;;;;;;;;5031695;28;20036;-76
2021/07/28 05:04:00;;;;;;;23.75;14.30;;;;;;;;;;5015407;28;20126;-76
2021/07/28 05:06:26;;;;;;;23.50;15.32;;;;;;;;;;5016483;28;20371;-76
2021/07/28 05:08:52;;;;;;;23.90;15.23;;;;;;;;;;5011478;28;20026;-76
2021/07/28 05:11:18;;;;;;;21.00;13.82;;;;;;;;;;5011814;28;20034;-76
2021/07/28 05:13:44;;;;;;;23.42;14.98;;;;;;;;;;5012461;28;20029;-76
2021/07/28 05:16:10;;;;;;;20.88;13.35;;;;;;;;;;5011661;28;20406;-76
2021/07/28 05:18:36;;;;;;;21.50;13.43;;;;;;;;;;5003110;28;20030;-76
2021/07/28 05:21:02;;;;;;;20.70;12.80;;;;;;;;;;5011390;28;20521;-76
2021/07/28 05:23:28;;;;;;;21.77;14.48;;;;;;;;;;5029824;28;20092;-76
2021/07/28 05:25:54;;;;;;;20.00;13.52;;;;;;;;;;5043530;28;20483;-76
2021/07/28 05:28:21;;;;;;;23.13;12.15;;;;;;;;;;5035959;28;20057;-76
2021/07/28 05:30:46;;;;;;;17.23;11.95;;;;;;;;;;5034526;28;20108;-76
2021/07/28 05:33:12;;;;;;;22.45;12.65;;;;;;;;;;5027004;28;20145;-76
2021/07/28 05:35:39;;;;;;;16.08;11.23;;;;;;;;;;5005620;28;20034;-75
2021/07/28 05:38:05;;;;;;;19.20;11.98;;;;;;;;;;5003755;28;20021;-76
2021/07/28 05:40:32;;;;;;;19.42;12.02;;;;;;;;;;5015063;28;20084;-75
2021/07/28 05:42:57;;;;;;;16.40;11.88;;;;;;;;;;5020876;28;20033;-74
2021/07/28 05:45:25;;;;;;;18.40;11.07;;;;;;;;;;5022280;28;20510;-74
2021/07/28 05:47:51;;;;;;;19.05;13.35;;;;;;;;;;5020612;28;20036;-75
2021/07/28 05:50:17;;;;;;;19.42;11.93;;;;;;;;;;5034041;28;20378;-74
2021/07/28 05:52:43;;;;;;;19.38;11.30;;;;;;;;;;5026222;28;20141;-73
2021/07/28 05:55:10;;;;;;;16.27;10.88;;;;;;;;;;5008452;28;20429;-74
2021/07/28 05:57:36;;;;;;;15.30;10.52;;;;;;;;;;5015172;28;20070;-74
2021/07/28 06:00:06;;;;;;;14.50;10.88;;;;;;;;;;5028325;28;20491;-74
2021/07/28 06:02:32;;;;;;;14.02;10.55;;;;;;;;;;5013749;28;20026;-74
2021/07/28 06:04:58;;;;;;;17.02;11.35;;;;;;;;;;4994735;28;20526;-74
2021/07/28 06:07:24;;;;;;;16.10;10.70;;;;;;;;;;5014775;28;20040;-74
2021/07/28 06:09:50;;;;;;;16.20;10.40;;;;;;;;;;5033789;28;20069;-74
2021/07/28 06:12:16;;;;;;;12.30;8.73;;;;;;;;;;5033577;28;20026;-74
2021/07/28 06:14:42;;;;;;;14.85;9.38;;;;;;;;;;5014364;28;20036;-74
2021/07/28 06:17:08;;;;;;;10.35;8.15;;;;;;;;;;5014148;28;20414;-73
2021/07/28 06:19:34;;;;;;;16.30;10.10;;;;;;;;;;5032557;28;20116;-74
2021/07/28 06:22:00;;;;;;;10.63;8.80;;;;;;;;;;5034051;28;20113;-74
2021/07/28 06:24:26;;;;;;;12.00;8.18;;;;;;;;;;5015491;28;20548;-74
2021/07/28 06:26:52;;;;;;;12.95;7.70;;;;;;;;;;5012169;28;20120;-74
2021/07/28 06:29:21;;;;;;;10.57;8.25;;;;;;;;;;5028475;28;20450;-74
2021/07/28 06:31:47;;;;;;;11.13;8.48;;;;;;;;;;5013892;28;20110;-73
2021/07/28 06:34:13;;;;;;;9.73;6.78;;;;;;;;;;5028506;28;20124;-74
2021/07/28 06:36:39;;;;;;;13.32;6.90;;;;;;;;;;5032882;28;20022;-74
2021/07/28 06:39:05;;;;;;;9.63;6.65;;;;;;;;;;5017503;28;20038;-73
2021/07/28 06:41:31;;;;;;;11.20;6.28;;;;;;;;;;5014004;28;20033;-74
2021/07/28 06:43:57;;;;;;;10.80;6.72;;;;;;;;;;5023000;28;20021;-73
2021/07/28 06:46:23;;;;;;;10.05;5.82;;;;;;;;;;5012043;28;20132;-73
2021/07/28 06:48:49;;;;;;;10.80;6.43;;;;;;;;;;5013783;28;20038;-73
2021/07/28 06:51:15;;;;;;;10.93;6.30;;;;;;;;;;5013484;28;20029;-73
2021/07/28 06:53:41;;;;;;;9.88;6.00;;;;;;;;;;5025980;28;20060;-75
2021/07/28 06:56:07;;;;;;;8.75;5.75;;;;;;;;;;5029740;28;20025;-75
2021/07/28 06:58:33;;;;;;;6.45;5.57;;;;;;;;;;5020022;28;20037;-75
2021/07/28 07:01:00;;;;;;;7.43;6.15;;;;;;;;;;5012944;28;20152;-74
2021/07/28 07:03:26;;;;;;;8.02;6.07;;;;;;;;;;5013731;28;20033;-73
2021/07/28 07:05:52;;;;;;;6.38;5.18;;;;;;;;;;5013224;28;20384;-74
2021/07/28 07:08:18;;;;;;;8.15;5.80;;;;;;;;;;5013910;28;20041;-74
2021/07/28 07:10:44;;;;;;;9.60;6.10;;;;;;;;;;5013205;28;20037;-74
2021/07/28 07:13:10;;;;;;;8.90;5.47;;;;;;;;;;5012503;28;20049;-74
2021/07/28 07:15:36;;;;;;;9.13;5.97;;;;;;;;;;5023731;28;20057;-74
2021/07/28 07:18:02;;;;;;;7.88;6.00;;;;;;;;;;5033137;28;20025;-74
2021/07/28 07:20:28;;;;;;;6.18;5.22;;;;;;;;;;5032331;28;20025;-73
2021/07/28 07:22:54;;;;;;;8.70;5.63;;;;;;;;;;5031463;28;20036;-73
2021/07/28 07:25:20;;;;;;;7.32;4.72;;;;;;;;;;5012947;28;20034;-74
2021/07/28 07:27:46;;;;;;;5.65;5.05;;;;;;;;;;5014874;28;20030;-74
2021/07/28 07:30:13;;;;;;;7.85;5.43;;;;;;;;;;5020504;28;20510;-73
2021/07/28 07:32:38;;;;;;;6.82;4.85;;;;;;;;;;5019186;28;20041;-75
2021/07/28 07:35:05;;;;;;;5.68;4.55;;;;;;;;;;5023211;28;20052;-74
2021/07/28 07:37:31;;;;;;;6.88;4.63;;;;;;;;;;5020448;28;20038;-72
2021/07/28 07:39:57;;;;;;;7.20;4.60;;;;;;;;;;5009172;28;20084;-72
2021/07/28 07:42:23;;;;;;;6.45;4.68;;;;;;;;;;5009644;28;20466;-73
2021/07/28 07:44:49;;;;;;;7.10;4.43;;;17.80;99.90;;;;;;5019326;28;20042;-73
2021/07/28 07:47:15;;;;;;;7.13;4.72;;;20.30;99.90;;;;;;5011609;28;20428;-73
2021/07/28 07:49:40;;;;;;;8.25;4.00;;;21.10;99.90;;;;;;5012175;28;20034;-74
2021/07/28 07:52:07;;;;;;;7.28;4.35;;;;;;;;;;5010474;28;20038;-73
2021/07/28 07:54:33;;;;;;;6.28;4.30;;;;;;;;;;5025416;28;20064;-73
2021/07/28 07:57:00;;;;;;;7.22;4.60;;;;;;;;;;5031471;28;20060;-72
2021/07/28 07:59:26;;;;;;;8.88;3.92;;;;;;;;;;5031400;28;20491;-73
2021/07/28 08:01:52;;;;;;;5.18;4.10;;;;;;;;;;5017829;28;20113;-72
2021/07/28 08:04:21;;;;;;;6.40;4.30;;;;;;;;;;5012537;28;20372;-72
2021/07/28 08:06:47;;;;;;;8.07;4.60;;;;;;;;;;5012266;28;20054;-74
2021/07/28 08:09:13;;;;;;;7.70;4.00;;;;;;;;;;5030736;28;20029;-74
2021/07/28 08:11:39;;;;;;;4.95;3.88;;;;;;;;;;5032176;28;20028;-74
2021/07/28 08:14:05;;;;;;;7.97;4.30;;;;;;;;;;5029565;28;20104;-74
2021/07/28 08:16:31;;;;;;;4.38;3.55;;;;;;;;;;5010365;28;20168;-74
2021/07/28 08:18:58;;;;;;;5.95;3.90;;;;;;;;;;5011436;28;20112;-74
2021/07/28 08:21:24;;;;;;;6.70;3.88;;;;;;;;;;5017178;28;20787;-74
2021/07/28 08:23:50;;;;;;;5.03;4.03;;;;;;;;;;5031978;28;20100;-73
2021/07/28 08:26:16;;;;;;;4.38;3.88;;;;;;;;;;5031392;28;20107;-75
2021/07/28 08:28:43;;;;;;;5.68;3.97;;;;;;;;;;5010736;28;20034;-74
2021/07/28 08:31:09;;;;;;;6.22;3.47;;;;;;;;;;5010318;28;20148;-74
2021/07/28 08:33:36;;;;;;;6.72;3.95;;;;;;;;;;5011769;28;20141;-73
2021/07/28 08:36:02;;;;;;;7.13;4.05;;;;;;;;;;5024729;28;20434;-73
2021/07/28 08:38:28;;;;;;;6.05;3.80;;;;;;;;;;5029885;28;20041;-74
2021/07/28 08:40:58;;;;;;;8.02;4.00;;;;;;;;;;5018498;28;20497;-73
2021/07/28 08:43:26;;;;;;;5.25;3.92;;;;;;;;;;5024297;28;20152;-74
2021/07/28 08:45:54;;;;;;;7.72;3.85;;;;;;;;;;5015172;28;20046;-75
2021/07/28 08:48:22;;;;;;;5.43;3.90;;;;;;;;;;5022996;28;20120;-74
2021/07/28 08:50:48;;;;;;;7.30;4.18;;;;;;;;;;5030206;28;20393;-72
2021/07/28 08:53:14;;;;;;;4.75;3.38;;;;;;;;;;5031483;28;20056;-72
2021/07/28 08:55:40;;;;;;;7.95;4.40;;;;;;;;;;5025467;28;20483;-72
2021/07/28 08:58:13;;;;;;;5.68;3.80;;;;;;;;;;5011214;28;20057;-72
2021/07/28 09:00:43;;;;;;;5.70;4.13;;;;;;;;;;5011229;28;20025;-73
2021/07/28 09:03:09;;;;;;;7.10;4.03;;;;;;;;;;5011416;28;20030;-72
2021/07/28 09:05:39;;;;;;;6.97;4.30;;;;;;;;;;5016795;28;20030;-74
2021/07/28 09:08:05;;;;;;;5.28;3.75;;;;;;;;;;5011575;28;20068;-73
2021/07/28 09:10:31;;;;;;;5.68;3.78;;;;;;;;;;5009441;28;20116;-73
2021/07/28 09:12:57;;;;;;;6.57;3.90;;;;;;;;;;5011757;28;20112;-75
2021/07/28 09:15:23;;;;;;;6.53;3.80;;;;;;;;;;5010158;28;20041;-73
2021/07/28 09:17:50;;;;;;;7.32;3.80;;;;;;;;;;5012738;28;20041;-73
2021/07/28 09:20:23;;;;;;;6.53;3.58;;;;;;;;;;5017142;28;20037;-73
2021/07/28 09:22:49;;;;;;;5.82;4.10;;;;;;;;;;5012812;28;20022;-74
2021/07/28 09:25:38;;;;;;;5.20;3.75;;;;;;;;;;5012165;28;20030;-73
2021/07/28 09:28:03;;;;;;;5.18;4.10;;;;;;;;;;5011528;28;20038;-74
2021/07/28 09:30:31;;;;;;;5.75;3.72;;;;;;;;;;5011169;28;20026;-74
2021/07/28 09:32:57;;;;;;;6.80;4.05;;;;;;;;;;5011839;28;20028;-74
2021/07/28 09:35:42;;;;;;;6.43;3.58;;;;;;;;;;5010209;28;20073;-74
2021/07/28 09:38:08;;;;;;;6.45;4.38;;;;;;;;;;5011871;28;20414;-74
2021/07/28 09:40:34;;;;;;;7.05;4.45;;;;;;;;;;5014376;28;20110;-74
2021/07/28 09:43:04;;;;;;;6.05;3.90;;;;;;;;;;5031557;28;20148;-74
2021/07/28 09:45:30;;;;;;;6.15;3.92;;;;;;;;;;5018172;28;20045;-74
2021/07/28 09:47:56;;;;;;;6.82;3.85;;;;;;;;;;5011817;28;20041;-74
2021/07/28 09:50:22;;;;;;;9.38;4.85;;;;;;;;;;5009637;28;20395;-74
2021/07/28 09:52:51;;;;;;;6.20;3.95;;;;;;;;;;5011245;28;20100;-74
2021/07/28 09:55:21;;;;;;;6.13;3.67;;;;;;;;;;5011194;28;20034;-74
2021/07/28 09:57:51;;;;;;;6.25;4.20;;;;;;;;;;5011387;28;20026;-74
2021/07/28 10:00:17;;;;;;;7.15;4.03;;;;;;;;;;5010574;28;20505;-74
2021/07/28 10:02:44;;;;;;;5.97;3.83;;;;;;;;;;5014582;28;20022;-74
2021/07/28 10:05:11;;;;;;;5.00;3.55;;;;;;;;;;5014373;28;20018;-74
2021/07/28 10:07:37;;;;;;;9.90;3.95;;;;;;;;;;5006726;28;20489;-74
2021/07/28 10:10:09;;;;;;;5.32;3.80;;;;;;;;;;5007828;28;20110;-74
2021/07/28 10:12:35;;;;;;;8.35;3.80;;;;;;;;;;5011228;28;20029;-74
2021/07/28 10:15:01;;;;;;;5.15;3.60;;;;;;;;;;5010377;28;20091;-74
2021/07/28 10:17:29;;;;;;;7.10;3.60;;;;;;;;;;5015149;28;20030;-74
2021/07/28 10:19:56;;;;;;;5.88;3.53;;;;;;;;;;5030402;28;20025;-74
2021/07/28 10:22:22;;;;;;;5.50;3.30;;;;;;;;;;5030460;28;20087;-74
2021/07/28 10:24:48;;;;;;;5.10;3.50;;;;;;;;;;5030573;28;20494;-74
2021/07/28 10:27:15;;;;;;;5.03;3.63;;;;;;;;;;5030087;28;20029;-74
2021/07/28 10:29:42;;;;;;;7.45;3.10;;;;;;;;;;5029368;28;20068;-74
2021/07/28 10:32:08;;;;;;;7.68;3.58;;;;;;;;;;5030663;28;20459;-74
2021/07/28 10:34:35;;;;;;;10.02;3.80;;;;;;;;;;5029504;28;20030;-74
2021/07/28 10:37:05;;;;;;;5.97;3.92;;;;;;;;;;5028343;28;20033;-74
2021/07/28 10:39:47;;;;;;;5.22;3.03;;;;;;;;;;5019554;28;20109;-74
2021/07/28 10:42:13;;;;;;;5.28;3.47;;;;;;;;;;5010235;28;20022;-75
2021/07/28 10:44:57;;;;;;;5.25;3.42;;;;;;;;;;5010345;28;20037;-74
2021/07/28 10:47:33;;;;;;;4.60;3.35;;;;;;;;;;5010385;28;20053;-75
2021/07/28 10:49:59;;;;;;;7.50;3.10;;;;;;;;;;5009518;28;20458;-75
2021/07/28 10:52:44;;;;;;;4.40;3.47;;;;;;;;;;5008204;28;20612;-75
2021/07/28 10:55:11;;;;;;;5.60;3.30;;;;;;;;;;5010072;28;20032;-75
2021/07/28 10:57:46;;;;;;;4.70;3.25;;;;;;;;;;5008174;28;20064;-75
2021/07/28 11:00:13;;;;;;;5.25;3.10;;;;;;;;;;5009036;28;20439;-75
2021/07/28 11:02:57;;;;;;;8.02;4.03;;;;;;;;;;5013525;28;20136;-75
2021/07/28 11:05:37;;;;;;;4.93;3.50;;;;;;;;;;5020406;28;20036;-75
2021/07/28 11:08:03;;;;;;;4.40;3.13;;;;;;;;;;5009456;28;20036;-75
2021/07/28 11:10:30;;;;;;;4.65;3.22;;;;;;;;;;5008248;28;20073;-75
2021/07/28 11:12:56;;;;;;;3.67;3.03;;;;;;;;;;5008302;28;20037;-75
2021/07/28 11:15:23;;;;;;;4.85;3.15;;;;;;;;;;5009550;28;20494;-75
2021/07/28 11:17:52;;;;;;;6.25;3.55;;;;;;;;;;5010049;28;20157;-74
2021/07/28 11:20:32;;;;;;;5.78;3.35;;;;;;;;;;5008083;28;20056;-75
2021/07/28 11:23:16;;;;;;;6.93;3.42;;;;;;;;;;5010097;28;20026;-75
2021/07/28 11:25:42;;;;;;;5.40;3.50;;;;;;;;;;5012373;28;20655;-75
2021/07/28 11:28:09;;;;;;;5.90;3.15;;;;;;;;;;5013536;28;20033;-75
2021/07/28 11:30:35;;;;;;;4.15;3.00;;;;;;;;;;5018051;28;20486;-75
2021/07/28 11:33:27;;;;;;;5.60;3.72;;;;;;;;;;5031564;28;20132;-75
2021/07/28 11:35:53;;;;;;;5.93;3.60;;;;;;;;;;5029709;28;20116;-75
2021/07/28 11:38:21;;;;;;;5.68;3.30;;;;;;;;;;5032873;28;20053;-75
2021/07/28 11:40:47;;;;;;;5.78;3.03;;;;;;;;;;5032298;28;20100;-75
2021/07/28 11:43:20;;;;;;;5.93;3.05;;;;;;;;;;5032515;28;20049;-75
2021/07/28 11:45:47;;;;;;;6.70;3.00;;;;;;;;;;5016942;28;20065;-75
2021/07/28 11:48:33;;;;;;;5.30;3.85;;;;;;;;;;5012279;28;20152;-76
2021/07/28 11:51:00;;;;;;;9.05;3.33;;;;;;;;;;5012299;28;20391;-76
2021/07/28 11:53:27;;;;;;;4.43;3.25;;;;;;;;;;5012899;28;20483;-76
2021/07/28 11:55:53;;;;;;;5.00;3.45;;;;;;;;;;5012629;28;20034;-76
2021/07/28 11:58:20;;;;;;;4.72;3.40;;;;;;;;;;5017562;28;20022;-77
2021/07/28 12:00:48;;;;;;;5.05;3.15;;;;;;;;;;5032139;28;20060;-76
2021/07/28 12:03:27;;;;;;;4.78;3.13;;;;;;;;;;5032907;28;20502;-77
2021/07/28 12:06:11;;;;;;;7.47;3.22;;;;;;;;;;5019740;28;20403;-76
2021/07/28 12:08:38;;;;;;;3.80;3.00;;;;;;;;;;5013039;28;20030;-76
2021/07/28 12:11:08;;;;;;;6.38;2.78;;;;;;;;;;5012706;28;20036;-76
2021/07/28 12:13:40;;;;;;;3.65;2.50;;;;;;;;;;5012818;28;20072;-76
2021/07/28 12:16:06;;;;;;;;;;;;;;;;;;5012991;28;20097;-76
2021/07/28 12:18:44;;;;;;;8.15;3.20;;;;;;;;;;5022533;28;19944;-77
2021/07/28 12:21:10;;;;;;;3.67;2.70;;;;;;;;;;5046171;28;20022;-76
2021/07/28 12:23:36;;;;;;;6.32;2.72;;;;;;;;;;5033491;28;20029;-76
2021/07/28 12:26:03;;;;;;;6.47;3.17;;;;;;;;;;5023557;28;20080;-77
2021/07/28 12:29:07;;;;;;;6.22;2.97;;;;;;;;;;5008546;28;20498;-77
2021/07/28 12:31:33;;;;;;;4.50;2.70;;;;;;;;;;4951219;28;20026;-77
2021/07/28 12:34:17;;;;;;;5.97;3.40;;;;;;;;;;4965720;28;20679;-76
2021/07/28 12:36:43;;;;;;;3.97;2.30;;;;;;;;;;4990968;28;20159;-77
2021/07/28 12:39:09;;;;;;;4.03;2.90;;;;;;;;;;5007655;28;20608;-76
2021/07/28 12:41:35;;;;;;;2.72;2.33;;;;;;;;;;5008838;28;20033;-77
2021/07/28 12:44:01;;;;;;;4.65;2.67;;;20.10;99.90;;;;;;5007952;28;20034;-77
2021/07/28 12:46:26;;;;;;;4.72;2.50;;;30.50;88.00;;;;;;5007978;28;20092;-76
2021/07/28 12:48:52;;;;;;;5.18;3.00;;;29.40;84.30;;;;;;5007564;28;20022;-76
2021/07/28 12:51:21;;;;;;;3.97;2.50;;;29.00;85.80;;;;;;5007179;28;20018;-77
2021/07/28 12:53:48;;;;;;;4.32;2.47;;;29.30;86.20;;;;;;5014228;28;20474;-78
2021/07/28 12:56:14;;;;;;;6.43;2.90;;;30.00;84.80;;;;;;5031562;28;20114;-78
2021/07/28 12:58:40;;;;;;;4.72;2.55;;;30.50;81.80;;;;;;5031691;28;20061;-78
2021/07/28 13:01:05;;;;;;;4.88;3.22;;;30.50;81.30;;;;;;5031465;28;20109;-78
2021/07/28 13:03:33;;;;;;;4.00;2.70;;;30.30;81.00;;;;;;5032154;28;20029;-78
2021/07/28 13:06:09;;;;;;;3.45;2.60;;;28.70;82.60;;;;;;5018109;28;20036;-77
2021/07/28 13:08:35;;;;;;;4.72;2.63;;;27.40;84.70;;;;;;5012117;28;20451;-78
2021/07/28 13:11:01;;;;;;;3.58;2.78;;;26.70;89.30;;;;;;5011427;28;20116;-78
2021/07/28 13:13:26;;;;;;;3.95;2.60;;;26.40;89.10;;;;;;5012025;28;20033;-78
2021/07/28 13:15:54;;;;;;;4.30;2.80;;;26.20;90.90;;;;;;5014193;28;20050;-78
2021/07/28 13:18:19;;;;;;;4.28;2.58;;;26.10;90.90;;;;;;5031467;28;20013;-78
2021/07/28 13:20:45;;;;;;;4.10;2.92;;;25.90;91.50;;;;;;5030876;28;20025;-78
2021/07/28 13:23:13;;;;;;;3.60;2.47;;;25.60;91.90;;;;;;5015387;28;20057;-78
2021/07/28 13:25:39;;;;;;;3.88;3.05;;;25.20;92.70;;;;;;5011983;28;20073;-78
2021/07/28 13:28:05;;;;;;;6.28;2.88;;;24.90;93.90;;;;;;5011693;28;20041;-77
2021/07/28 13:30:31;;;;;;;3.47;2.80;;;24.70;94.30;;;;;;5010599;28;20176;-78
2021/07/28 13:32:57;;;;;;;6.45;2.80;;;24.30;95.30;;;;;;5011322;28;20156;-78
2021/07/28 13:35:23;;;;;;;4.72;2.92;;;24.30;95.20;;;;;;5011608;28;20032;-78
2021/07/28 13:37:48;;;;;;;6.45;2.92;;;24.00;97.30;;;;;;5012098;28;20415;-78
2021/07/28 13:40:14;;;;;;;4.85;3.40;;;23.50;99.90;;;;;;5011302;28;20108;-78
2021/07/28 13:42:42;;;;;;;9.02;4.57;;;;;;;;;;5014090;28;20041;-78
2021/07/28 13:45:09;;;;;;;8.98;4.72;;;;;;;;;;5020036;28;20033;-79
2021/07/28 13:47:35;;;;;;;11.90;5.68;;;;;;;;;;5020197;28;20030;-79
2021/07/28 13:50:01;;;;;;;7.57;5.13;;;;;;;;;;5028606;28;20029;-78
2021/07/28 13:52:27;;;;;;;8.75;5.50;;;;;;;;;;5041175;28;20025;-79
2021/07/28 13:54:53;;;;;;;9.85;5.10;;;;;;;;;;5039008;28;20121;-78
2021/07/28 13:57:21;;;;;;;9.10;6.20;;;;;;;;;;5039577;28;20061;-78
2021/07/28 13:59:47;;;;;;;9.70;5.68;;;;;;;;;;5040996;28;20018;-79
2021/07/28 14:02:14;;;;;;;6.25;4.65;;;;;;;;;;5039438;28;20036;-79
2021/07/28 14:04:41;;;;;;;5.90;4.40;;;;;;;;;;5037161;28;20029;-80
2021/07/28 14:07:07;;;;;;;8.88;5.03;;;;;;;;;;5018935;28;20040;-79
2021/07/28 14:09:33;;;;;;;6.22;3.80;;;;;;;;;;5019525;28;20033;-80
2021/07/28 14:12:01;;;;;;;5.03;3.40;;;;;;;;;;5039295;28;20033;-79
2021/07/28 14:14:29;;;;;;;6.53;3.97;;;;;;;;;;5034218;28;20025;-79
2021/07/28 14:16:55;;;;;;;9.25;4.07;;;;;;;;;;5019952;28;20060;-80